sensor_id;sensor_type;location;lat;lon;timestamp;P1;durP1;ratioP1;P2;durP2;ratioP2
76850;SDS011;65824;43.726;20.692;2023-08-21T00:02:24;11.60;;;9.45;;
76850;SDS011;65824;43.726;20.692;2023-08-21T00:04:52;11.30;;;9.35;;
76850;SDS011;65824;43.726;20.692;2023-08-21T00:07:18;10.68;;;8.85;;
76850;SDS011;65824;43.726;20.692;2023-08-21T00:09:44;11.18;;;8.95;;
76850;SDS011;65824;43.726;20.692;2023-08-21T00:12:09;14.57;;;9.35;;
76850;SDS011;65824;43.726;20.692;2023-08-21T00:14:35;13.20;;;9.30;;
76850;SDS011;65824;43.726;20.692;2023-08-21T00:17:01;14.43;;;9.23;;
76850;SDS011;65824;43.726;20.692;2023-08-21T00:19:28;11.73;;;9.27;;
76850;SDS011;65824;43.726;20.692;2023-08-21T00:21:53;13.57;;;9.55;;
76850;SDS011;65824;43.726;20.692;2023-08-21T00:24:19;12.88;;;9.55;;
76850;SDS011;65824;43.726;20.692;2023-08-21T00:26:44;13.57;;;10.63;;
76850;SDS011;65824;43.726;20.692;2023-08-21T00:29:10;12.25;;;10.23;;
76850;SDS011;65824;43.726;20.692;2023-08-21T00:31:35;13.73;;;9.30;;
76850;SDS011;65824;43.726;20.692;2023-08-21T00:34:01;13.25;;;9.90;;
76850;SDS011;65824;43.726;20.692;2023-08-21T00:36:26;14.52;;;9.85;;
76850;SDS011;65824;43.726;20.692;2023-08-21T00:38:51;11.88;;;9.43;;
76850;SDS011;65824;43.726;20.692;2023-08-21T00:41:17;14.10;;;10.00;;
76850;SDS011;65824;43.726;20.692;2023-08-21T00:43:42;14.90;;;10.45;;
76850;SDS011;65824;43.726;20.692;2023-08-21T00:46:08;15.38;;;10.43;;
76850;SDS011;65824;43.726;20.692;2023-08-21T00:48:33;14.18;;;10.13;;
76850;SDS011;65824;43.726;20.692;2023-08-21T00:50:59;15.00;;;10.32;;
76850;SDS011;65824;43.726;20.692;2023-08-21T00:53:25;16.05;;;10.70;;
76850;SDS011;65824;43.726;20.692;2023-08-21T00:55:51;17.85;;;11.27;;
76850;SDS011;65824;43.726;20.692;2023-08-21T00:58:17;20.17;;;10.82;;
76850;SDS011;65824;43.726;20.692;2023-08-21T01:00:44;21.20;;;11.38;;
76850;SDS011;65824;43.726;20.692;2023-08-21T01:03:10;17.35;;;10.85;;
76850;SDS011;65824;43.726;20.692;2023-08-21T01:05:36;14.52;;;10.45;;
76850;SDS011;65824;43.726;20.692;2023-08-21T01:08:03;17.23;;;11.23;;
76850;SDS011;65824;43.726;20.692;2023-08-21T01:13:09;16.50;;;11.10;;
76850;SDS011;65824;43.726;20.692;2023-08-21T01:15:40;16.92;;;11.00;;
76850;SDS011;65824;43.726;20.692;2023-08-21T01:18:07;16.05;;;11.13;;
76850;SDS011;65824;43.726;20.692;2023-08-21T01:20:33;15.32;;;10.65;;
76850;SDS011;65824;43.726;20.692;2023-08-21T01:23:03;17.85;;;11.45;;
76850;SDS011;65824;43.726;20.692;2023-08-21T01:25:29;16.00;;;10.98;;
76850;SDS011;65824;43.726;20.692;2023-08-21T01:27:55;16.67;;;10.52;;
76850;SDS011;65824;43.726;20.692;2023-08-21T01:30:20;17.05;;;11.23;;
76850;SDS011;65824;43.726;20.692;2023-08-21T01:35:35;17.48;;;11.20;;
76850;SDS011;65824;43.726;20.692;2023-08-21T01:38:04;15.02;;;10.63;;
76850;SDS011;65824;43.726;20.692;2023-08-21T01:40:30;18.02;;;10.55;;
76850;SDS011;65824;43.726;20.692;2023-08-21T01:42:55;17.95;;;10.77;;
76850;SDS011;65824;43.726;20.692;2023-08-21T01:45:21;13.70;;;10.20;;
76850;SDS011;65824;43.726;20.692;2023-08-21T01:47:47;13.07;;;10.50;;
76850;SDS011;65824;43.726;20.692;2023-08-21T01:50:13;14.13;;;10.02;;
76850;SDS011;65824;43.726;20.692;2023-08-21T01:52:38;14.43;;;9.95;;
76850;SDS011;65824;43.726;20.692;2023-08-21T01:55:04;13.30;;;9.68;;
76850;SDS011;65824;43.726;20.692;2023-08-21T01:57:32;12.45;;;9.73;;
76850;SDS011;65824;43.726;20.692;2023-08-21T01:59:58;13.65;;;9.80;;
76850;SDS011;65824;43.726;20.692;2023-08-21T02:02:23;14.40;;;10.05;;
76850;SDS011;65824;43.726;20.692;2023-08-21T02:04:49;13.73;;;9.60;;
76850;SDS011;65824;43.726;20.692;2023-08-21T02:07:14;14.98;;;10.70;;
76850;SDS011;65824;43.726;20.692;2023-08-21T02:09:40;14.35;;;10.05;;
76850;SDS011;65824;43.726;20.692;2023-08-21T02:12:05;13.95;;;10.07;;
76850;SDS011;65824;43.726;20.692;2023-08-21T02:14:31;17.10;;;12.63;;
76850;SDS011;65824;43.726;20.692;2023-08-21T02:16:56;23.02;;;15.15;;
76850;SDS011;65824;43.726;20.692;2023-08-21T02:19:22;20.85;;;15.18;;
76850;SDS011;65824;43.726;20.692;2023-08-21T02:21:47;21.70;;;14.68;;
76850;SDS011;65824;43.726;20.692;2023-08-21T02:24:13;20.02;;;12.32;;
76850;SDS011;65824;43.726;20.692;2023-08-21T02:26:38;16.08;;;12.02;;
76850;SDS011;65824;43.726;20.692;2023-08-21T02:29:05;17.80;;;11.10;;
76850;SDS011;65824;43.726;20.692;2023-08-21T02:31:30;17.15;;;10.75;;
76850;SDS011;65824;43.726;20.692;2023-08-21T02:33:56;15.85;;;11.07;;
76850;SDS011;65824;43.726;20.692;2023-08-21T02:36:21;20.35;;;10.75;;
76850;SDS011;65824;43.726;20.692;2023-08-21T02:38:46;14.40;;;10.95;;
76850;SDS011;65824;43.726;20.692;2023-08-21T02:41:12;18.27;;;10.85;;
76850;SDS011;65824;43.726;20.692;2023-08-21T02:43:37;19.58;;;11.63;;
76850;SDS011;65824;43.726;20.692;2023-08-21T02:46:03;16.35;;;10.85;;
76850;SDS011;65824;43.726;20.692;2023-08-21T02:48:28;18.75;;;11.57;;
76850;SDS011;65824;43.726;20.692;2023-08-21T02:50:55;20.67;;;11.20;;
76850;SDS011;65824;43.726;20.692;2023-08-21T02:53:20;17.60;;;11.68;;
76850;SDS011;65824;43.726;20.692;2023-08-21T02:55:45;15.10;;;10.55;;
76850;SDS011;65824;43.726;20.692;2023-08-21T02:58:11;16.77;;;10.57;;
76850;SDS011;65824;43.726;20.692;2023-08-21T03:00:36;17.38;;;10.93;;
76850;SDS011;65824;43.726;20.692;2023-08-21T03:03:03;17.98;;;10.80;;
76850;SDS011;65824;43.726;20.692;2023-08-21T03:05:29;18.75;;;11.45;;
76850;SDS011;65824;43.726;20.692;2023-08-21T03:07:56;16.80;;;11.52;;
76850;SDS011;65824;43.726;20.692;2023-08-21T03:10:21;17.50;;;12.00;;
76850;SDS011;65824;43.726;20.692;2023-08-21T03:12:48;17.85;;;11.98;;
76850;SDS011;65824;43.726;20.692;2023-08-21T03:15:14;14.88;;;11.30;;
76850;SDS011;65824;43.726;20.692;2023-08-21T03:17:39;15.73;;;11.35;;
76850;SDS011;65824;43.726;20.692;2023-08-21T03:20:06;18.58;;;12.20;;
76850;SDS011;65824;43.726;20.692;2023-08-21T03:22:32;22.67;;;11.57;;
76850;SDS011;65824;43.726;20.692;2023-08-21T03:24:57;17.90;;;11.50;;
76850;SDS011;65824;43.726;20.692;2023-08-21T03:27:23;18.55;;;11.45;;
76850;SDS011;65824;43.726;20.692;2023-08-21T03:29:49;16.20;;;11.45;;
76850;SDS011;65824;43.726;20.692;2023-08-21T03:32:15;18.38;;;11.48;;
76850;SDS011;65824;43.726;20.692;2023-08-21T03:34:41;18.67;;;11.77;;
76850;SDS011;65824;43.726;20.692;2023-08-21T03:37:07;20.45;;;12.27;;
76850;SDS011;65824;43.726;20.692;2023-08-21T03:39:33;21.77;;;12.50;;
76850;SDS011;65824;43.726;20.692;2023-08-21T03:41:58;16.42;;;11.40;;
76850;SDS011;65824;43.726;20.692;2023-08-21T03:44:24;16.40;;;12.10;;
76850;SDS011;65824;43.726;20.692;2023-08-21T03:46:49;15.23;;;11.32;;
76850;SDS011;65824;43.726;20.692;2023-08-21T03:49:15;18.52;;;11.38;;
76850;SDS011;65824;43.726;20.692;2023-08-21T03:51:40;17.00;;;10.90;;
76850;SDS011;65824;43.726;20.692;2023-08-21T03:54:05;15.90;;;11.40;;
76850;SDS011;65824;43.726;20.692;2023-08-21T03:56:31;16.40;;;10.88;;
76850;SDS011;65824;43.726;20.692;2023-08-21T03:58:56;20.88;;;11.50;;
76850;SDS011;65824;43.726;20.692;2023-08-21T04:01:22;17.80;;;12.00;;
76850;SDS011;65824;43.726;20.692;2023-08-21T04:03:47;17.20;;;11.15;;
76850;SDS011;65824;43.726;20.692;2023-08-21T04:06:13;18.98;;;11.68;;
76850;SDS011;65824;43.726;20.692;2023-08-21T04:08:38;18.00;;;11.13;;
76850;SDS011;65824;43.726;20.692;2023-08-21T04:11:04;18.42;;;10.93;;
76850;SDS011;65824;43.726;20.692;2023-08-21T04:13:30;14.30;;;11.55;;
76850;SDS011;65824;43.726;20.692;2023-08-21T04:15:56;17.85;;;11.50;;
76850;SDS011;65824;43.726;20.692;2023-08-21T04:18:21;19.88;;;11.40;;
76850;SDS011;65824;43.726;20.692;2023-08-21T04:20:47;16.63;;;11.10;;
76850;SDS011;65824;43.726;20.692;2023-08-21T04:23:13;17.70;;;11.40;;
76850;SDS011;65824;43.726;20.692;2023-08-21T04:25:38;18.55;;;11.77;;
76850;SDS011;65824;43.726;20.692;2023-08-21T04:28:04;19.08;;;11.20;;
76850;SDS011;65824;43.726;20.692;2023-08-21T04:30:29;16.17;;;11.20;;
76850;SDS011;65824;43.726;20.692;2023-08-21T04:32:55;16.90;;;11.35;;
76850;SDS011;65824;43.726;20.692;2023-08-21T04:35:21;22.00;;;11.30;;
76850;SDS011;65824;43.726;20.692;2023-08-21T04:37:46;15.85;;;11.02;;
76850;SDS011;65824;43.726;20.692;2023-08-21T04:40:13;15.48;;;10.63;;
76850;SDS011;65824;43.726;20.692;2023-08-21T04:42:40;16.85;;;11.32;;
76850;SDS011;65824;43.726;20.692;2023-08-21T04:45:06;12.88;;;10.63;;
76850;SDS011;65824;43.726;20.692;2023-08-21T04:47:32;15.60;;;11.63;;
76850;SDS011;65824;43.726;20.692;2023-08-21T04:49:57;14.18;;;11.10;;
76850;SDS011;65824;43.726;20.692;2023-08-21T04:52:23;19.25;;;11.32;;
76850;SDS011;65824;43.726;20.692;2023-08-21T04:54:49;14.77;;;10.85;;
76850;SDS011;65824;43.726;20.692;2023-08-21T04:57:15;16.05;;;11.57;;
76850;SDS011;65824;43.726;20.692;2023-08-21T04:59:41;16.17;;;11.25;;
76850;SDS011;65824;43.726;20.692;2023-08-21T05:02:06;17.27;;;11.43;;
76850;SDS011;65824;43.726;20.692;2023-08-21T05:04:32;14.45;;;11.40;;
76850;SDS011;65824;43.726;20.692;2023-08-21T05:06:59;17.27;;;11.32;;
76850;SDS011;65824;43.726;20.692;2023-08-21T05:09:24;17.80;;;11.32;;
76850;SDS011;65824;43.726;20.692;2023-08-21T05:11:50;15.68;;;11.27;;
76850;SDS011;65824;43.726;20.692;2023-08-21T05:14:15;20.55;;;12.88;;
76850;SDS011;65824;43.726;20.692;2023-08-21T05:16:40;18.45;;;12.35;;
76850;SDS011;65824;43.726;20.692;2023-08-21T05:19:07;16.55;;;12.63;;
76850;SDS011;65824;43.726;20.692;2023-08-21T05:21:32;17.40;;;12.25;;
76850;SDS011;65824;43.726;20.692;2023-08-21T05:23:58;16.58;;;12.27;;
76850;SDS011;65824;43.726;20.692;2023-08-21T05:26:23;17.02;;;12.48;;
76850;SDS011;65824;43.726;20.692;2023-08-21T05:28:49;16.83;;;12.48;;
76850;SDS011;65824;43.726;20.692;2023-08-21T05:31:14;19.42;;;12.45;;
76850;SDS011;65824;43.726;20.692;2023-08-21T05:33:39;17.88;;;12.77;;
76850;SDS011;65824;43.726;20.692;2023-08-21T05:36:05;17.17;;;12.55;;
76850;SDS011;65824;43.726;20.692;2023-08-21T05:38:31;19.27;;;12.77;;
76850;SDS011;65824;43.726;20.692;2023-08-21T05:40:56;20.48;;;12.73;;
76850;SDS011;65824;43.726;20.692;2023-08-21T05:43:23;21.38;;;15.13;;
76850;SDS011;65824;43.726;20.692;2023-08-21T05:45:48;20.60;;;14.30;;
76850;SDS011;65824;43.726;20.692;2023-08-21T05:48:14;35.15;;;23.80;;
76850;SDS011;65824;43.726;20.692;2023-08-21T05:50:39;20.65;;;14.88;;
76850;SDS011;65824;43.726;20.692;2023-08-21T05:53:05;16.50;;;12.48;;
76850;SDS011;65824;43.726;20.692;2023-08-21T05:55:31;22.48;;;14.27;;
76850;SDS011;65824;43.726;20.692;2023-08-21T05:57:56;20.25;;;14.48;;
76850;SDS011;65824;43.726;20.692;2023-08-21T06:00:22;26.63;;;19.52;;
76850;SDS011;65824;43.726;20.692;2023-08-21T06:02:47;24.65;;;15.98;;
76850;SDS011;65824;43.726;20.692;2023-08-21T06:05:13;22.13;;;14.10;;
76850;SDS011;65824;43.726;20.692;2023-08-21T06:07:38;21.00;;;13.77;;
76850;SDS011;65824;43.726;20.692;2023-08-21T06:10:06;20.88;;;13.98;;
76850;SDS011;65824;43.726;20.692;2023-08-21T06:12:40;29.08;;;18.15;;
76850;SDS011;65824;43.726;20.692;2023-08-21T06:15:08;27.90;;;17.27;;
76850;SDS011;65824;43.726;20.692;2023-08-21T06:17:34;22.58;;;15.15;;
76850;SDS011;65824;43.726;20.692;2023-08-21T06:20:00;22.85;;;15.82;;
76850;SDS011;65824;43.726;20.692;2023-08-21T06:22:25;43.40;;;30.35;;
76850;SDS011;65824;43.726;20.692;2023-08-21T06:24:51;44.20;;;29.38;;
76850;SDS011;65824;43.726;20.692;2023-08-21T06:27:16;52.85;;;35.10;;
76850;SDS011;65824;43.726;20.692;2023-08-21T06:29:43;55.78;;;38.53;;
76850;SDS011;65824;43.726;20.692;2023-08-21T06:32:09;51.83;;;35.17;;
76850;SDS011;65824;43.726;20.692;2023-08-21T06:34:34;47.33;;;32.90;;
76850;SDS011;65824;43.726;20.692;2023-08-21T06:37:00;51.78;;;33.72;;
76850;SDS011;65824;43.726;20.692;2023-08-21T06:39:25;57.45;;;37.90;;
76850;SDS011;65824;43.726;20.692;2023-08-21T06:41:51;68.03;;;46.97;;
76850;SDS011;65824;43.726;20.692;2023-08-21T06:44:17;41.58;;;27.10;;
76850;SDS011;65824;43.726;20.692;2023-08-21T06:46:42;54.03;;;34.35;;
76850;SDS011;65824;43.726;20.692;2023-08-21T06:49:08;51.70;;;35.45;;
76850;SDS011;65824;43.726;20.692;2023-08-21T06:51:33;50.60;;;35.25;;
76850;SDS011;65824;43.726;20.692;2023-08-21T06:53:59;30.38;;;20.52;;
76850;SDS011;65824;43.726;20.692;2023-08-21T06:56:25;42.63;;;27.05;;
76850;SDS011;65824;43.726;20.692;2023-08-21T06:58:50;30.70;;;21.00;;
76850;SDS011;65824;43.726;20.692;2023-08-21T07:01:18;50.30;;;34.75;;
76850;SDS011;65824;43.726;20.692;2023-08-21T07:03:43;53.38;;;38.45;;
76850;SDS011;65824;43.726;20.692;2023-08-21T07:06:09;54.22;;;36.50;;
76850;SDS011;65824;43.726;20.692;2023-08-21T07:08:34;40.17;;;27.50;;
76850;SDS011;65824;43.726;20.692;2023-08-21T07:11:01;44.63;;;31.45;;
76850;SDS011;65824;43.726;20.692;2023-08-21T07:13:29;42.90;;;31.08;;
76850;SDS011;65824;43.726;20.692;2023-08-21T07:15:54;37.42;;;25.88;;
76850;SDS011;65824;43.726;20.692;2023-08-21T07:18:20;37.40;;;26.42;;
76850;SDS011;65824;43.726;20.692;2023-08-21T07:20:46;29.38;;;21.63;;
76850;SDS011;65824;43.726;20.692;2023-08-21T07:23:11;20.17;;;14.70;;
76850;SDS011;65824;43.726;20.692;2023-08-21T07:25:37;32.45;;;21.50;;
76850;SDS011;65824;43.726;20.692;2023-08-21T07:28:04;33.67;;;25.15;;
76850;SDS011;65824;43.726;20.692;2023-08-21T07:30:29;57.72;;;33.60;;
76850;SDS011;65824;43.726;20.692;2023-08-21T07:32:55;29.60;;;20.55;;
76850;SDS011;65824;43.726;20.692;2023-08-21T07:35:21;33.75;;;27.17;;
76850;SDS011;65824;43.726;20.692;2023-08-21T07:37:46;33.90;;;24.25;;
76850;SDS011;65824;43.726;20.692;2023-08-21T07:40:12;64.65;;;46.97;;
76850;SDS011;65824;43.726;20.692;2023-08-21T07:42:39;32.03;;;24.55;;
76850;SDS011;65824;43.726;20.692;2023-08-21T07:45:05;24.52;;;18.83;;
76850;SDS011;65824;43.726;20.692;2023-08-21T07:47:31;36.83;;;24.55;;
76850;SDS011;65824;43.726;20.692;2023-08-21T07:49:59;54.35;;;35.55;;
76850;SDS011;65824;43.726;20.692;2023-08-21T07:52:24;43.58;;;30.13;;
76850;SDS011;65824;43.726;20.692;2023-08-21T07:54:53;38.50;;;27.30;;
76850;SDS011;65824;43.726;20.692;2023-08-21T07:57:20;43.05;;;30.67;;
76850;SDS011;65824;43.726;20.692;2023-08-21T07:59:46;29.65;;;20.08;;
76850;SDS011;65824;43.726;20.692;2023-08-21T08:02:11;63.25;;;43.83;;
76850;SDS011;65824;43.726;20.692;2023-08-21T08:04:37;46.15;;;33.28;;
76850;SDS011;65824;43.726;20.692;2023-08-21T08:07:03;34.00;;;26.60;;
76850;SDS011;65824;43.726;20.692;2023-08-21T08:09:30;47.38;;;34.33;;
76850;SDS011;65824;43.726;20.692;2023-08-21T08:11:55;24.73;;;18.77;;
76850;SDS011;65824;43.726;20.692;2023-08-21T08:14:21;32.55;;;24.75;;
76850;SDS011;65824;43.726;20.692;2023-08-21T08:16:46;30.60;;;23.17;;
76850;SDS011;65824;43.726;20.692;2023-08-21T08:19:12;28.25;;;22.48;;
76850;SDS011;65824;43.726;20.692;2023-08-21T08:21:37;19.52;;;14.98;;
76850;SDS011;65824;43.726;20.692;2023-08-21T08:24:03;26.45;;;20.20;;
76850;SDS011;65824;43.726;20.692;2023-08-21T08:26:29;33.55;;;22.73;;
76850;SDS011;65824;43.726;20.692;2023-08-21T08:28:54;18.70;;;14.18;;
76850;SDS011;65824;43.726;20.692;2023-08-21T08:31:20;25.23;;;17.33;;
76850;SDS011;65824;43.726;20.692;2023-08-21T08:33:45;32.63;;;25.33;;
76850;SDS011;65824;43.726;20.692;2023-08-21T08:36:11;29.20;;;20.52;;
76850;SDS011;65824;43.726;20.692;2023-08-21T08:38:36;25.15;;;18.17;;
76850;SDS011;65824;43.726;20.692;2023-08-21T08:41:03;32.40;;;23.85;;
76850;SDS011;65824;43.726;20.692;2023-08-21T08:43:35;23.80;;;19.10;;
76850;SDS011;65824;43.726;20.692;2023-08-21T08:46:05;23.13;;;17.55;;
76850;SDS011;65824;43.726;20.692;2023-08-21T08:48:31;29.90;;;21.27;;
76850;SDS011;65824;43.726;20.692;2023-08-21T08:50:56;21.38;;;16.92;;
76850;SDS011;65824;43.726;20.692;2023-08-21T08:53:22;24.48;;;18.48;;
76850;SDS011;65824;43.726;20.692;2023-08-21T08:55:49;19.45;;;13.95;;
76850;SDS011;65824;43.726;20.692;2023-08-21T08:58:16;19.02;;;14.77;;
76850;SDS011;65824;43.726;20.692;2023-08-21T09:00:41;19.40;;;15.82;;
76850;SDS011;65824;43.726;20.692;2023-08-21T09:03:07;19.63;;;12.45;;
76850;SDS011;65824;43.726;20.692;2023-08-21T09:05:33;22.08;;;17.38;;
76850;SDS011;65824;43.726;20.692;2023-08-21T09:08:09;22.42;;;13.57;;
76850;SDS011;65824;43.726;20.692;2023-08-21T09:10:38;22.85;;;14.38;;
76850;SDS011;65824;43.726;20.692;2023-08-21T09:13:23;26.42;;;17.50;;
76850;SDS011;65824;43.726;20.692;2023-08-21T09:15:53;20.42;;;12.32;;
76850;SDS011;65824;43.726;20.692;2023-08-21T09:18:21;24.50;;;13.23;;
76850;SDS011;65824;43.726;20.692;2023-08-21T09:20:46;18.73;;;12.40;;
76850;SDS011;65824;43.726;20.692;2023-08-21T09:23:16;17.63;;;13.55;;
76850;SDS011;65824;43.726;20.692;2023-08-21T09:25:43;18.20;;;12.40;;
76850;SDS011;65824;43.726;20.692;2023-08-21T09:28:13;18.40;;;13.70;;
76850;SDS011;65824;43.726;20.692;2023-08-21T09:33:16;22.77;;;12.55;;
76850;SDS011;65824;43.726;20.692;2023-08-21T09:35:44;16.65;;;12.77;;
76850;SDS011;65824;43.726;20.692;2023-08-21T09:38:10;21.83;;;12.95;;
76850;SDS011;65824;43.726;20.692;2023-08-21T09:40:42;18.02;;;13.02;;
76850;SDS011;65824;43.726;20.692;2023-08-21T09:43:11;18.10;;;12.15;;
76850;SDS011;65824;43.726;20.692;2023-08-21T09:45:37;19.38;;;12.63;;
76850;SDS011;65824;43.726;20.692;2023-08-21T09:48:03;18.45;;;14.15;;
76850;SDS011;65824;43.726;20.692;2023-08-21T09:50:29;16.20;;;13.10;;
76850;SDS011;65824;43.726;20.692;2023-08-21T09:52:59;20.23;;;16.30;;
76850;SDS011;65824;43.726;20.692;2023-08-21T09:55:24;13.07;;;11.57;;
76850;SDS011;65824;43.726;20.692;2023-08-21T09:57:59;14.10;;;12.05;;
76850;SDS011;65824;43.726;20.692;2023-08-21T10:00:32;20.63;;;14.27;;
76850;SDS011;65824;43.726;20.692;2023-08-21T10:03:06;18.60;;;12.32;;
76850;SDS011;65824;43.726;20.692;2023-08-21T10:05:36;17.52;;;11.73;;
76850;SDS011;65824;43.726;20.692;2023-08-21T10:08:03;26.45;;;13.88;;
76850;SDS011;65824;43.726;20.692;2023-08-21T10:10:31;17.55;;;13.45;;
76850;SDS011;65824;43.726;20.692;2023-08-21T10:13:02;17.58;;;12.63;;
76850;SDS011;65824;43.726;20.692;2023-08-21T10:15:29;14.70;;;11.40;;
76850;SDS011;65824;43.726;20.692;2023-08-21T10:17:56;13.90;;;10.82;;
76850;SDS011;65824;43.726;20.692;2023-08-21T10:20:23;16.52;;;12.90;;
76850;SDS011;65824;43.726;20.692;2023-08-21T10:22:52;17.17;;;12.63;;
76850;SDS011;65824;43.726;20.692;2023-08-21T10:25:25;19.05;;;13.50;;
76850;SDS011;65824;43.726;20.692;2023-08-21T10:27:54;15.98;;;13.13;;
76850;SDS011;65824;43.726;20.692;2023-08-21T10:30:29;16.38;;;13.13;;
76850;SDS011;65824;43.726;20.692;2023-08-21T10:32:56;14.48;;;11.88;;
76850;SDS011;65824;43.726;20.692;2023-08-21T10:35:24;14.27;;;12.77;;
76850;SDS011;65824;43.726;20.692;2023-08-21T10:40:32;16.50;;;11.98;;
76850;SDS011;65824;43.726;20.692;2023-08-21T10:42:58;18.88;;;12.68;;
76850;SDS011;65824;43.726;20.692;2023-08-21T10:45:24;17.85;;;14.23;;
76850;SDS011;65824;43.726;20.692;2023-08-21T10:47:49;15.40;;;12.35;;
76850;SDS011;65824;43.726;20.692;2023-08-21T10:50:15;14.35;;;12.80;;
76850;SDS011;65824;43.726;20.692;2023-08-21T10:52:42;18.60;;;11.60;;
76850;SDS011;65824;43.726;20.692;2023-08-21T10:55:11;14.52;;;10.40;;
76850;SDS011;65824;43.726;20.692;2023-08-21T10:57:37;15.80;;;12.02;;
76850;SDS011;65824;43.726;20.692;2023-08-21T11:00:08;14.93;;;11.25;;
76850;SDS011;65824;43.726;20.692;2023-08-21T11:02:40;16.42;;;14.55;;
76850;SDS011;65824;43.726;20.692;2023-08-21T11:05:07;15.93;;;13.13;;
76850;SDS011;65824;43.726;20.692;2023-08-21T11:07:36;14.38;;;12.27;;
76850;SDS011;65824;43.726;20.692;2023-08-21T11:10:12;15.45;;;11.23;;
76850;SDS011;65824;43.726;20.692;2023-08-21T11:12:55;16.58;;;11.63;;
76850;SDS011;65824;43.726;20.692;2023-08-21T11:15:21;14.10;;;10.98;;
76850;SDS011;65824;43.726;20.692;2023-08-21T11:17:54;18.02;;;11.93;;
76850;SDS011;65824;43.726;20.692;2023-08-21T11:20:21;16.70;;;12.88;;
76850;SDS011;65824;43.726;20.692;2023-08-21T11:22:47;12.55;;;10.73;;
76850;SDS011;65824;43.726;20.692;2023-08-21T11:25:14;15.45;;;13.18;;
76850;SDS011;65824;43.726;20.692;2023-08-21T11:27:41;13.50;;;10.48;;
76850;SDS011;65824;43.726;20.692;2023-08-21T11:30:10;19.15;;;13.80;;
76850;SDS011;65824;43.726;20.692;2023-08-21T11:32:36;13.25;;;10.60;;
76850;SDS011;65824;43.726;20.692;2023-08-21T11:35:01;13.98;;;10.23;;
76850;SDS011;65824;43.726;20.692;2023-08-21T11:37:28;13.23;;;10.38;;
76850;SDS011;65824;43.726;20.692;2023-08-21T11:39:57;14.10;;;10.32;;
76850;SDS011;65824;43.726;20.692;2023-08-21T11:42:32;13.02;;;10.70;;
76850;SDS011;65824;43.726;20.692;2023-08-21T11:44:58;15.75;;;10.65;;
76850;SDS011;65824;43.726;20.692;2023-08-21T11:47:29;11.68;;;10.07;;
76850;SDS011;65824;43.726;20.692;2023-08-21T11:49:56;12.10;;;10.30;;
76850;SDS011;65824;43.726;20.692;2023-08-21T11:52:22;13.48;;;11.75;;
76850;SDS011;65824;43.726;20.692;2023-08-21T11:54:51;17.15;;;10.85;;
76850;SDS011;65824;43.726;20.692;2023-08-21T11:57:17;16.88;;;11.18;;
76850;SDS011;65824;43.726;20.692;2023-08-21T11:59:49;12.20;;;10.10;;
76850;SDS011;65824;43.726;20.692;2023-08-21T12:02:17;12.63;;;10.02;;
76850;SDS011;65824;43.726;20.692;2023-08-21T12:04:44;11.73;;;9.50;;
76850;SDS011;65824;43.726;20.692;2023-08-21T12:07:10;10.88;;;9.65;;
76850;SDS011;65824;43.726;20.692;2023-08-21T12:09:36;10.95;;;8.73;;
76850;SDS011;65824;43.726;20.692;2023-08-21T12:12:01;11.93;;;10.63;;
76850;SDS011;65824;43.726;20.692;2023-08-21T12:14:27;11.75;;;8.82;;
76850;SDS011;65824;43.726;20.692;2023-08-21T12:16:53;10.25;;;8.48;;
76850;SDS011;65824;43.726;20.692;2023-08-21T12:19:19;11.75;;;9.48;;
76850;SDS011;65824;43.726;20.692;2023-08-21T12:21:47;10.93;;;8.38;;
76850;SDS011;65824;43.726;20.692;2023-08-21T12:24:12;11.80;;;10.35;;
76850;SDS011;65824;43.726;20.692;2023-08-21T12:26:38;11.40;;;9.10;;
76850;SDS011;65824;43.726;20.692;2023-08-21T12:29:03;11.60;;;8.95;;
76850;SDS011;65824;43.726;20.692;2023-08-21T12:31:29;11.60;;;9.02;;
76850;SDS011;65824;43.726;20.692;2023-08-21T12:33:55;13.75;;;9.93;;
76850;SDS011;65824;43.726;20.692;2023-08-21T12:36:21;14.55;;;9.38;;
76850;SDS011;65824;43.726;20.692;2023-08-21T12:38:46;12.18;;;9.30;;
76850;SDS011;65824;43.726;20.692;2023-08-21T12:41:12;16.35;;;12.65;;
76850;SDS011;65824;43.726;20.692;2023-08-21T12:43:37;14.88;;;11.13;;
76850;SDS011;65824;43.726;20.692;2023-08-21T12:46:03;16.83;;;13.95;;
76850;SDS011;65824;43.726;20.692;2023-08-21T12:48:28;19.70;;;14.13;;
76850;SDS011;65824;43.726;20.692;2023-08-21T12:50:53;14.80;;;10.43;;
76850;SDS011;65824;43.726;20.692;2023-08-21T12:53:19;16.83;;;11.50;;
76850;SDS011;65824;43.726;20.692;2023-08-21T12:55:44;22.55;;;16.00;;
76850;SDS011;65824;43.726;20.692;2023-08-21T12:58:11;15.00;;;13.07;;
76850;SDS011;65824;43.726;20.692;2023-08-21T13:00:39;22.45;;;18.35;;
76850;SDS011;65824;43.726;20.692;2023-08-21T13:03:04;16.75;;;11.30;;
76850;SDS011;65824;43.726;20.692;2023-08-21T13:05:30;39.15;;;30.60;;
76850;SDS011;65824;43.726;20.692;2023-08-21T13:07:55;30.15;;;23.40;;
76850;SDS011;65824;43.726;20.692;2023-08-21T13:10:21;42.85;;;31.65;;
76850;SDS011;65824;43.726;20.692;2023-08-21T13:12:46;14.00;;;12.48;;
76850;SDS011;65824;43.726;20.692;2023-08-21T13:15:12;34.63;;;25.15;;
76850;SDS011;65824;43.726;20.692;2023-08-21T13:17:37;19.73;;;15.00;;
76850;SDS011;65824;43.726;20.692;2023-08-21T13:20:03;15.40;;;13.55;;
76850;SDS011;65824;43.726;20.692;2023-08-21T13:22:43;16.00;;;11.27;;
76850;SDS011;65824;43.726;20.692;2023-08-21T13:25:13;16.17;;;13.38;;
76850;SDS011;65824;43.726;20.692;2023-08-21T13:27:40;17.08;;;13.30;;
76850;SDS011;65824;43.726;20.692;2023-08-21T13:30:05;36.85;;;28.92;;
76850;SDS011;65824;43.726;20.692;2023-08-21T13:32:33;20.20;;;14.98;;
76850;SDS011;65824;43.726;20.692;2023-08-21T13:34:59;15.82;;;12.68;;
76850;SDS011;65824;43.726;20.692;2023-08-21T13:37:25;16.77;;;11.65;;
76850;SDS011;65824;43.726;20.692;2023-08-21T13:39:51;19.98;;;15.80;;
76850;SDS011;65824;43.726;20.692;2023-08-21T13:42:17;18.50;;;16.05;;
76850;SDS011;65824;43.726;20.692;2023-08-21T13:44:42;17.50;;;13.65;;
76850;SDS011;65824;43.726;20.692;2023-08-21T13:47:08;15.48;;;12.15;;
76850;SDS011;65824;43.726;20.692;2023-08-21T13:49:34;14.00;;;11.85;;
76850;SDS011;65824;43.726;20.692;2023-08-21T13:51:59;18.17;;;13.20;;
76850;SDS011;65824;43.726;20.692;2023-08-21T13:54:24;14.85;;;10.68;;
76850;SDS011;65824;43.726;20.692;2023-08-21T13:56:50;17.73;;;11.43;;
76850;SDS011;65824;43.726;20.692;2023-08-21T13:59:15;15.68;;;11.80;;
76850;SDS011;65824;43.726;20.692;2023-08-21T14:01:42;18.23;;;12.80;;
76850;SDS011;65824;43.726;20.692;2023-08-21T14:04:07;13.88;;;11.30;;
76850;SDS011;65824;43.726;20.692;2023-08-21T14:06:33;14.75;;;10.38;;
76850;SDS011;65824;43.726;20.692;2023-08-21T14:08:59;17.83;;;10.55;;
76850;SDS011;65824;43.726;20.692;2023-08-21T14:11:24;23.92;;;16.48;;
76850;SDS011;65824;43.726;20.692;2023-08-21T14:13:49;25.50;;;18.50;;
76850;SDS011;65824;43.726;20.692;2023-08-21T14:16:15;21.58;;;17.00;;
76850;SDS011;65824;43.726;20.692;2023-08-21T14:18:41;26.73;;;21.40;;